Time;durP1;ratioP1;P1;durP2;ratioP2;P2;SDS_P1;SDS_P2;PMS_P1;PMS_P2;Temp;Humidity;BMP_temperature;BMP_pressure;BME280_temperature;BME280_humidity;BME280_pressure;Samples;Min_cycle;Max_cycle;Signal;HPM_P1;HPM_P2
2022/06/15 04:19:35;;;;;;;3.38;1.00;;;16.40;1.00;;;;;;6184960;22;20025;-91
2022/06/15 04:45:13;;;;;;;3.35;1.25;;;16.40;1.00;;;;;;6192026;22;20023;-93
2022/06/15 13:57:47;;;;;;;5.72;1.70;;;24.80;1.00;;;;;;6237184;22;20531;-88
2022/06/15 14:30:01;;;;;;;3.60;1.27;;;25.60;1.00;;;;;;6216037;22;20047;-89
2022/06/15 14:32:34;;;;;;;3.10;1.10;;;24.50;1.00;;;;;;6196063;23;20020;-88
2022/06/15 14:35:12;;;;;;;7.32;1.73;;;25.30;1.00;;;;;;6194232;23;20016;-89
2022/06/15 14:37:40;;;;;;;4.45;1.42;;;25.10;1.00;;;;;;6216993;23;20083;-88
2022/06/15 14:40:23;;;;;;;3.90;1.30;;;24.90;1.00;;;;;;6217849;23;20103;-89
2022/06/15 14:42:54;;;;;;;2.97;1.73;;;25.50;1.00;;;;;;6217656;23;20070;-87
2022/06/15 14:45:26;;;;;;;3.13;1.42;;;24.70;1.00;;;;;;6217431;23;20099;-88
2022/06/15 14:47:58;;;;;;;3.00;1.95;;;26.10;1.00;;;;;;6217252;23;20047;-87
2022/06/15 14:50:26;;;;;;;2.43;1.60;;;26.60;1.00;;;;;;6190609;23;20330;-87
2022/06/15 14:52:53;;;;;;;3.67;1.38;;;26.80;1.00;;;;;;6216100;23;20008;-88
2022/06/15 14:55:25;;;;;;;2.13;1.52;;;26.10;1.00;;;;;;6216537;23;20172;-88
2022/06/15 14:58:25;;;;;;;1.45;0.98;;;27.00;1.00;;;;;;6189921;23;20115;-89
2022/06/15 15:01:12;;;;;;;3.95;1.40;;;27.50;1.00;;;;;;6190701;23;20021;-88
2022/06/15 15:03:41;;;;;;;2.85;1.10;;;26.80;1.00;;;;;;6189974;23;20016;-89
2022/06/15 15:06:16;;;;;;;2.75;1.20;;;27.30;1.00;;;;;;6165605;23;20437;-90
2022/06/15 15:08:48;;;;;;;1.83;0.98;;;27.50;1.00;;;;;;6191653;23;20019;-90
2022/06/15 15:11:36;;;;;;;2.43;1.27;;;27.90;1.00;;;;;;6191909;23;20023;-88
2022/06/15 15:14:14;;;;;;;3.80;1.30;;;27.00;1.00;;;;;;6191592;23;20032;-90
2022/06/15 15:16:43;;;;;;;2.92;1.35;;;26.70;1.00;;;;;;6192046;23;20108;-88
2022/06/15 15:19:36;;;;;;;2.65;1.30;;;26.90;1.00;;;;;;6191691;23;20027;-86
2022/06/15 15:22:04;;;;;;;2.50;1.15;;;27.90;1.00;;;;;;6190106;23;20047;-88
2022/06/15 15:24:54;;;;;;;2.83;1.48;;;28.20;1.00;;;;;;6189329;23;20017;-88
2022/06/15 18:53:54;;;;;;;2.40;1.38;;;25.00;1.00;;;;;;6181870;23;20024;-90
2022/06/15 18:56:37;;;;;;;2.35;1.40;;;24.60;1.00;;;;;;6195999;23;20019;-91
2022/06/15 18:59:14;;;;;;;2.75;1.40;;;24.70;1.00;;;;;;6209482;23;20012;-90
2022/06/15 19:01:41;;;;;;;1.60;1.20;;;24.40;1.00;;;;;;6190448;23;20020;-91
2022/06/15 19:04:11;;;;;;;2.03;1.20;;;24.40;1.00;;;;;;6189689;23;20013;-89
2022/06/15 19:06:42;;;;;;;1.77;1.42;;;24.30;1.00;;;;;;6191598;23;20019;-91
2022/06/15 19:09:10;;;;;;;2.17;1.20;;;24.20;1.00;;;;;;6190417;23;20016;-87
2022/06/15 19:11:38;;;;;;;2.05;1.17;;;23.80;1.00;;;;;;6216235;23;20092;-89
2022/06/15 19:14:06;;;;;;;2.30;1.40;;;23.90;1.00;;;;;;6189354;23;20020;-86
2022/06/15 19:16:33;;;;;;;2.85;1.60;;;23.30;1.00;;;;;;6189551;23;20020;-87
2022/06/15 19:19:00;;;;;;;3.00;1.42;;;23.90;1.00;;;;;;6189313;23;20087;-87
2022/06/15 19:21:29;;;;;;;1.90;1.10;;;23.90;1.00;;;;;;6215505;23;20091;-86
2022/06/15 19:23:56;;;;;;;2.85;1.60;;;24.10;1.00;;;;;;6188709;23;20020;-87
2022/06/15 19:26:23;;;;;;;2.53;1.50;;;24.30;1.00;;;;;;6189082;23;20013;-87
2022/06/15 19:28:50;;;;;;;2.05;1.27;;;23.90;1.00;;;;;;6215697;23;20013;-86
2022/06/15 19:31:17;;;;;;;2.58;1.50;;;23.60;1.00;;;;;;6215040;23;20017;-86
2022/06/15 19:33:45;;;;;;;2.90;1.80;;;23.30;1.00;;;;;;6164346;23;20449;-87
2022/06/15 19:36:12;;;;;;;2.67;1.30;;;23.20;1.00;;;;;;6215145;23;20039;-86
2022/06/15 19:38:39;;;;;;;1.60;1.10;;;23.30;1.00;;;;;;6188883;23;20040;-89
2022/06/15 19:41:11;;;;;;;1.40;1.05;;;23.50;1.00;;;;;;6214594;23;20120;-87
2022/06/15 20:28:36;;;;;;;3.03;1.30;;;22.20;1.00;;;;;;6158635;23;20021;-92
2022/06/15 20:31:09;;;;;;;3.75;1.63;;;22.40;1.00;;;;;;6139337;23;20043;-89
2022/06/15 20:33:36;;;;;;;2.03;1.50;;;22.70;1.00;;;;;;6149342;23;20016;-93
2022/06/15 20:36:19;;;;;;;1.98;1.23;;;22.80;1.00;;;;;;6209039;23;20027;-93
2022/06/15 20:38:53;;;;;;;2.33;1.23;;;22.70;1.00;;;;;;6194526;23;20020;-93
2022/06/15 20:41:31;;;;;;;3.03;1.35;;;22.60;1.00;;;;;;6195160;23;20016;-93
2022/06/15 20:44:07;;;;;;;2.38;1.15;;;22.50;1.00;;;;;;6196603;23;20023;-93
2022/06/15 20:46:58;;;;;;;5.82;1.42;;;21.80;1.00;;;;;;6174116;23;20023;-92
2022/06/15 20:49:32;;;;;;;5.97;1.70;;;21.40;1.00;;;;;;6195683;23;20021;-89
2022/06/15 20:52:06;;;;;;;3.08;1.40;;;21.60;1.00;;;;;;6195395;23;20020;-91
